Portada
METAR-TAF:

METAR-TAF

Aeroports :

Aeroport de la Corunya

La Corunya, Espanya

latitud: 43-18N, longitud: 008-23W, altitud: 97 m

Observació

L'informe es va fer fa 38 minuts, a les 14:30 UTC
Vent 14 kt del Est/Nord-Est, variant entre Nord/Nord-Est i Est
Temperatura 22°C
Humitat 57%
Pressió 1026 hPa
Visibilitat 10 km o més
Escasses núvols a una alçada de 3000 ft

METAR: LECO 241430Z 06014KT 030V090 9999 FEW030 22/13 Q1026 NOSIG

Hora: 17:08 (15:08 UTC)

Pronòstic

L'informe es va fer fa 1 hora i 8 minuts, a les 14:00 UTC
Pronòstic vàlid del 24 a les 15 UTC al 25 a les 15 UTC
Vent 9 kt del Nord-Est
Visibilitat 10 km o més
Cel ennuvolat a una alçada de 3000 ft
Temporalment
l' 24 a les 15 UTC al 24 a les 20 UTC
Vent 15 kt del Nord-Est amb ràfegues de 25 kt

TAF: LECO 241400Z 2415/2515 05009KT 9999 BKN030 TX24/2514Z TN12/2503Z TEMPO 2415/2420 05015G25KT

Observacions i pronòstics meteorològics de més de 4000 aeroports (METAR i TAF).

Les estacions disponibles són els punts grocs i vermells al mapa.

Posi el ratolí al punt desitjat per veure el nom de l'estació.

Feu clic per veure les observacions i els pronòstics meteorològics.

Per canviar el mapa: feu clic els botons verds amb una creu de color negre per apropar; al botó verd amb un guió per allunyar la imatge; o en les fletxes verdes per a mapes adjacents.


METAR-TAF: